sensor_id;sensor_type;location;lat;lon;timestamp;pressure;altitude;pressure_sealevel;temperature;humidity
19594;BME280;9944;48.240;16.478;2022-07-04T00:02:31;99811.00;;;24.39;60.66
19594;BME280;9944;48.240;16.478;2022-07-04T00:06:35;99809.66;;;24.30;61.24
19594;BME280;9944;48.240;16.478;2022-07-04T00:10:39;99800.09;;;24.24;61.17
19594;BME280;9944;48.240;16.478;2022-07-04T00:14:42;99811.91;;;24.22;61.41
19594;BME280;9944;48.240;16.478;2022-07-04T00:18:46;99813.00;;;24.18;61.85
19594;BME280;9944;48.240;16.478;2022-07-04T00:22:49;99810.56;;;24.13;62.04
19594;BME280;9944;48.240;16.478;2022-07-04T00:26:54;99818.06;;;24.06;62.11
19594;BME280;9944;48.240;16.478;2022-07-04T00:30:57;99810.44;;;23.97;62.04
19594;BME280;9944;48.240;16.478;2022-07-04T00:35:00;99807.44;;;23.86;62.05
19594;BME280;9944;48.240;16.478;2022-07-04T00:39:04;99810.41;;;23.80;61.66
19594;BME280;9944;48.240;16.478;2022-07-04T00:43:08;99805.34;;;23.74;61.69
19594;BME280;9944;48.240;16.478;2022-07-04T00:47:12;99803.75;;;23.69;62.23
19594;BME280;9944;48.240;16.478;2022-07-04T00:51:15;99804.84;;;23.65;62.01
19594;BME280;9944;48.240;16.478;2022-07-04T00:55:18;99802.50;;;23.59;62.21
19594;BME280;9944;48.240;16.478;2022-07-04T00:59:23;99803.63;;;23.54;62.40
19594;BME280;9944;48.240;16.478;2022-07-04T01:03:27;99800.22;;;23.50;62.18
19594;BME280;9944;48.240;16.478;2022-07-04T01:07:30;99798.59;;;23.47;62.15
19594;BME280;9944;48.240;16.478;2022-07-04T01:11:33;99790.59;;;23.46;62.69
19594;BME280;9944;48.240;16.478;2022-07-04T01:15:38;99799.75;;;23.42;62.33
19594;BME280;9944;48.240;16.478;2022-07-04T01:19:41;99791.06;;;23.37;62.34
19594;BME280;9944;48.240;16.478;2022-07-04T01:23:46;99786.91;;;23.29;62.75
19594;BME280;9944;48.240;16.478;2022-07-04T01:27:49;99795.41;;;23.20;62.79
19594;BME280;9944;48.240;16.478;2022-07-04T01:31:53;99789.53;;;23.12;63.20
19594;BME280;9944;48.240;16.478;2022-07-04T01:35:56;99783.44;;;23.08;62.93
19594;BME280;9944;48.240;16.478;2022-07-04T01:40:01;99788.88;;;23.07;63.35
19594;BME280;9944;48.240;16.478;2022-07-04T01:44:04;99800.59;;;23.04;63.40
19594;BME280;9944;48.240;16.478;2022-07-04T01:48:09;99799.03;;;23.00;63.56
19594;BME280;9944;48.240;16.478;2022-07-04T01:52:12;99800.03;;;22.98;63.56
19594;BME280;9944;48.240;16.478;2022-07-04T01:56:18;99792.16;;;22.93;63.68
19594;BME280;9944;48.240;16.478;2022-07-04T02:00:22;99782.47;;;22.90;63.40
19594;BME280;9944;48.240;16.478;2022-07-04T02:04:48;99776.38;;;22.87;63.51
19594;BME280;9944;48.240;16.478;2022-07-04T02:08:52;99786.38;;;22.83;63.68
19594;BME280;9944;48.240;16.478;2022-07-04T02:13:14;99778.53;;;22.79;63.55
19594;BME280;9944;48.240;16.478;2022-07-04T02:17:17;99785.00;;;22.74;63.75
19594;BME280;9944;48.240;16.478;2022-07-04T02:21:20;99783.44;;;22.69;64.09
19594;BME280;9944;48.240;16.478;2022-07-04T02:25:24;99782.00;;;22.62;63.77
19594;BME280;9944;48.240;16.478;2022-07-04T02:29:30;99776.78;;;22.59;63.70
19594;BME280;9944;48.240;16.478;2022-07-04T02:33:33;99776.13;;;22.53;64.24
19594;BME280;9944;48.240;16.478;2022-07-04T02:37:37;99777.25;;;22.48;64.12
19594;BME280;9944;48.240;16.478;2022-07-04T02:41:40;99765.84;;;22.43;64.32
19594;BME280;9944;48.240;16.478;2022-07-04T02:45:44;99763.34;;;22.40;64.82
19594;BME280;9944;48.240;16.478;2022-07-04T02:49:48;99769.75;;;22.35;64.67
19594;BME280;9944;48.240;16.478;2022-07-04T02:53:51;99774.38;;;22.32;64.98
19594;BME280;9944;48.240;16.478;2022-07-04T02:57:54;99778.03;;;22.31;65.05
19594;BME280;9944;48.240;16.478;2022-07-04T03:01:59;99770.00;;;22.31;65.16
19594;BME280;9944;48.240;16.478;2022-07-04T03:06:02;99762.88;;;22.30;65.09
19594;BME280;9944;48.240;16.478;2022-07-04T03:10:06;99767.31;;;22.31;65.04
19594;BME280;9944;48.240;16.478;2022-07-04T03:14:10;99771.78;;;22.30;65.20
19594;BME280;9944;48.240;16.478;2022-07-04T03:18:15;99774.38;;;22.32;65.35
19594;BME280;9944;48.240;16.478;2022-07-04T03:22:18;99778.03;;;22.31;65.56
19594;BME280;9944;48.240;16.478;2022-07-04T03:26:21;99785.19;;;22.30;65.66
19594;BME280;9944;48.240;16.478;2022-07-04T03:30:24;99793.16;;;22.32;65.56
19594;BME280;9944;48.240;16.478;2022-07-04T03:34:29;99795.97;;;22.29;65.72
19594;BME280;9944;48.240;16.478;2022-07-04T03:38:32;99789.78;;;22.27;65.88
19594;BME280;9944;48.240;16.478;2022-07-04T03:42:36;99788.97;;;22.25;66.41
19594;BME280;9944;48.240;16.478;2022-07-04T03:46:39;99794.47;;;22.22;66.86
19594;BME280;9944;48.240;16.478;2022-07-04T03:50:44;99793.66;;;22.19;67.20
19594;BME280;9944;48.240;16.478;2022-07-04T03:54:47;99805.31;;;22.18;67.21
19594;BME280;9944;48.240;16.478;2022-07-04T03:58:50;99809.06;;;22.14;67.34
19594;BME280;9944;48.240;16.478;2022-07-04T04:02:54;99813.69;;;22.11;67.33
19594;BME280;9944;48.240;16.478;2022-07-04T04:06:58;99812.72;;;22.13;67.58
19594;BME280;9944;48.240;16.478;2022-07-04T04:11:00;99815.31;;;22.15;68.00
19594;BME280;9944;48.240;16.478;2022-07-04T04:15:04;99836.69;;;22.16;67.93
19594;BME280;9944;48.240;16.478;2022-07-04T04:19:08;99832.13;;;22.18;67.66
19594;BME280;9944;48.240;16.478;2022-07-04T04:23:12;99846.41;;;22.19;67.58
19594;BME280;9944;48.240;16.478;2022-07-04T04:27:15;99850.69;;;22.23;67.79
19594;BME280;9944;48.240;16.478;2022-07-04T04:31:18;99846.13;;;22.25;67.74
19594;BME280;9944;48.240;16.478;2022-07-04T04:35:22;99844.34;;;22.26;67.51
19594;BME280;9944;48.240;16.478;2022-07-04T04:39:26;99854.81;;;22.32;67.80
19594;BME280;9944;48.240;16.478;2022-07-04T04:43:29;99855.44;;;22.38;67.59
19594;BME280;9944;48.240;16.478;2022-07-04T04:47:33;99841.69;;;22.46;67.64
19594;BME280;9944;48.240;16.478;2022-07-04T04:51:36;99848.53;;;22.53;67.41
19594;BME280;9944;48.240;16.478;2022-07-04T04:55:41;99846.53;;;22.59;67.29
19594;BME280;9944;48.240;16.478;2022-07-04T04:59:44;99847.03;;;22.67;67.68
19594;BME280;9944;48.240;16.478;2022-07-04T05:03:50;99858.31;;;22.75;67.65
19594;BME280;9944;48.240;16.478;2022-07-04T05:07:54;99859.91;;;22.79;67.29
19594;BME280;9944;48.240;16.478;2022-07-04T05:11:58;99856.69;;;22.91;67.24
19594;BME280;9944;48.240;16.478;2022-07-04T05:16:03;99870.31;;;23.07;67.51
19594;BME280;9944;48.240;16.478;2022-07-04T05:20:07;99875.16;;;23.18;66.87
19594;BME280;9944;48.240;16.478;2022-07-04T05:24:11;99879.03;;;23.31;66.71
19594;BME280;9944;48.240;16.478;2022-07-04T05:28:15;99878.00;;;23.53;67.03
19594;BME280;9944;48.240;16.478;2022-07-04T05:32:18;99872.59;;;23.72;66.71
19594;BME280;9944;48.240;16.478;2022-07-04T05:36:22;99881.59;;;23.90;66.27
19594;BME280;9944;48.240;16.478;2022-07-04T05:40:31;99875.31;;;24.09;65.97
19594;BME280;9944;48.240;16.478;2022-07-04T05:44:35;99866.16;;;24.30;64.93
19594;BME280;9944;48.240;16.478;2022-07-04T05:48:38;99864.81;;;24.56;64.43
19594;BME280;9944;48.240;16.478;2022-07-04T05:52:41;99864.78;;;24.91;64.24
19594;BME280;9944;48.240;16.478;2022-07-04T05:56:45;99870.38;;;25.04;62.80
19594;BME280;9944;48.240;16.478;2022-07-04T06:00:49;99874.47;;;25.11;63.47
19594;BME280;9944;48.240;16.478;2022-07-04T06:04:52;99881.94;;;25.22;63.29
19594;BME280;9944;48.240;16.478;2022-07-04T06:08:56;99871.75;;;25.29;63.38
19594;BME280;9944;48.240;16.478;2022-07-04T06:12:59;99875.81;;;25.36;62.28
19594;BME280;9944;48.240;16.478;2022-07-04T06:17:03;99885.91;;;25.48;61.77
19594;BME280;9944;48.240;16.478;2022-07-04T06:21:07;99895.16;;;25.60;62.37
19594;BME280;9944;48.240;16.478;2022-07-04T06:25:11;99894.09;;;25.79;61.51
19594;BME280;9944;48.240;16.478;2022-07-04T06:29:14;99888.66;;;25.96;60.87
19594;BME280;9944;48.240;16.478;2022-07-04T06:33:19;99892.28;;;26.11;60.38
19594;BME280;9944;48.240;16.478;2022-07-04T06:37:22;99904.63;;;26.15;59.92
19594;BME280;9944;48.240;16.478;2022-07-04T06:41:26;99909.22;;;26.29;60.03
19594;BME280;9944;48.240;16.478;2022-07-04T06:45:29;99923.97;;;26.38;59.82
19594;BME280;9944;48.240;16.478;2022-07-04T06:49:34;99928.22;;;26.42;59.68
19594;BME280;9944;48.240;16.478;2022-07-04T06:53:37;99923.81;;;26.41;59.28
19594;BME280;9944;48.240;16.478;2022-07-04T06:57:40;99930.75;;;26.45;60.00
19594;BME280;9944;48.240;16.478;2022-07-04T07:01:44;99941.53;;;26.45;58.96
19594;BME280;9944;48.240;16.478;2022-07-04T07:05:48;99936.06;;;26.46;58.50
19594;BME280;9944;48.240;16.478;2022-07-04T07:10:07;99946.59;;;26.51;58.16
19594;BME280;9944;48.240;16.478;2022-07-04T07:14:11;99950.91;;;26.54;58.78
19594;BME280;9944;48.240;16.478;2022-07-04T07:18:14;99956.91;;;26.59;58.58
19594;BME280;9944;48.240;16.478;2022-07-04T07:22:19;99959.31;;;26.65;58.17
19594;BME280;9944;48.240;16.478;2022-07-04T07:26:22;99954.38;;;26.72;57.91
19594;BME280;9944;48.240;16.478;2022-07-04T07:30:26;99952.19;;;26.78;57.94
19594;BME280;9944;48.240;16.478;2022-07-04T07:34:29;99947.78;;;26.92;57.54
19594;BME280;9944;48.240;16.478;2022-07-04T07:38:34;99941.53;;;27.05;57.39
19594;BME280;9944;48.240;16.478;2022-07-04T07:42:37;99941.94;;;27.14;56.36
19594;BME280;9944;48.240;16.478;2022-07-04T07:46:41;99937.41;;;27.29;55.05
19594;BME280;9944;48.240;16.478;2022-07-04T07:50:44;99944.66;;;27.42;55.17
19594;BME280;9944;48.240;16.478;2022-07-04T07:54:48;99938.19;;;27.45;54.37
19594;BME280;9944;48.240;16.478;2022-07-04T07:59:01;99942.94;;;27.41;54.10
19594;BME280;9944;48.240;16.478;2022-07-04T08:03:05;99928.66;;;27.39;53.72
19594;BME280;9944;48.240;16.478;2022-07-04T08:07:26;99932.22;;;27.40;52.69
19594;BME280;9944;48.240;16.478;2022-07-04T08:11:30;99932.13;;;27.41;53.42
19594;BME280;9944;48.240;16.478;2022-07-04T08:15:33;99920.22;;;27.44;51.80
19594;BME280;9944;48.240;16.478;2022-07-04T08:19:37;99912.69;;;27.49;51.57
19594;BME280;9944;48.240;16.478;2022-07-04T08:23:40;99908.44;;;27.59;51.97
19594;BME280;9944;48.240;16.478;2022-07-04T08:28:05;99906.81;;;27.84;51.50
19594;BME280;9944;48.240;16.478;2022-07-04T08:32:08;99902.31;;;28.12;50.83
19594;BME280;9944;48.240;16.478;2022-07-04T08:36:11;99899.03;;;28.34;49.96
19594;BME280;9944;48.240;16.478;2022-07-04T08:40:14;99892.38;;;28.52;49.80
19594;BME280;9944;48.240;16.478;2022-07-04T08:44:19;99886.69;;;28.70;49.50
19594;BME280;9944;48.240;16.478;2022-07-04T08:48:25;99898.38;;;28.83;49.54
19594;BME280;9944;48.240;16.478;2022-07-04T08:52:35;99904.78;;;28.95;49.00
19594;BME280;9944;48.240;16.478;2022-07-04T08:56:39;99908.69;;;29.04;48.87
19594;BME280;9944;48.240;16.478;2022-07-04T09:01:03;99922.78;;;29.09;49.08
19594;BME280;9944;48.240;16.478;2022-07-04T09:05:07;99923.53;;;29.11;48.40
19594;BME280;9944;48.240;16.478;2022-07-04T09:09:11;99923.03;;;29.19;47.70
19594;BME280;9944;48.240;16.478;2022-07-04T09:13:16;99926.91;;;29.27;48.32
19594;BME280;9944;48.240;16.478;2022-07-04T09:17:21;99934.19;;;29.27;48.03
19594;BME280;9944;48.240;16.478;2022-07-04T09:21:42;99935.59;;;29.20;47.53
19594;BME280;9944;48.240;16.478;2022-07-04T09:25:47;99929.50;;;29.16;47.02
19594;BME280;9944;48.240;16.478;2022-07-04T09:29:52;99922.97;;;29.06;46.85
19594;BME280;9944;48.240;16.478;2022-07-04T09:33:59;99922.56;;;28.99;46.79
19594;BME280;9944;48.240;16.478;2022-07-04T09:38:04;99927.44;;;28.94;47.03
19594;BME280;9944;48.240;16.478;2022-07-04T09:42:08;99917.69;;;28.91;47.03
19594;BME280;9944;48.240;16.478;2022-07-04T09:46:11;99913.47;;;28.87;47.07
19594;BME280;9944;48.240;16.478;2022-07-04T09:50:17;99906.41;;;28.85;47.00
19594;BME280;9944;48.240;16.478;2022-07-04T09:54:23;99901.09;;;28.83;47.19
19594;BME280;9944;48.240;16.478;2022-07-04T09:58:29;99894.69;;;28.84;47.69
19594;BME280;9944;48.240;16.478;2022-07-04T10:02:32;99898.72;;;28.91;48.30
19594;BME280;9944;48.240;16.478;2022-07-04T10:06:39;99891.13;;;28.97;47.92
19594;BME280;9944;48.240;16.478;2022-07-04T10:10:42;99882.78;;;29.00;47.92
19594;BME280;9944;48.240;16.478;2022-07-04T10:14:46;99884.81;;;29.09;47.46
19594;BME280;9944;48.240;16.478;2022-07-04T10:18:50;99875.72;;;29.10;46.92
19594;BME280;9944;48.240;16.478;2022-07-04T10:22:55;99873.03;;;29.10;46.81
19594;BME280;9944;48.240;16.478;2022-07-04T10:26:58;99863.78;;;29.13;47.04
19594;BME280;9944;48.240;16.478;2022-07-04T10:31:01;99859.78;;;29.18;47.49
19594;BME280;9944;48.240;16.478;2022-07-04T10:35:06;99873.56;;;29.15;46.57
19594;BME280;9944;48.240;16.478;2022-07-04T10:39:21;99885.03;;;29.06;46.65
19594;BME280;9944;48.240;16.478;2022-07-04T10:43:51;99885.69;;;28.97;46.73
19594;BME280;9944;48.240;16.478;2022-07-04T10:47:55;99881.59;;;28.91;46.73
19594;BME280;9944;48.240;16.478;2022-07-04T10:52:10;99872.06;;;28.85;46.54
19594;BME280;9944;48.240;16.478;2022-07-04T10:56:35;99872.81;;;28.87;46.91
19594;BME280;9944;48.240;16.478;2022-07-04T11:00:41;99874.66;;;29.00;46.95
19594;BME280;9944;48.240;16.478;2022-07-04T11:05:05;99875.94;;;29.07;46.06
19594;BME280;9944;48.240;16.478;2022-07-04T11:09:19;99874.75;;;29.11;46.43
19594;BME280;9944;48.240;16.478;2022-07-04T11:13:24;99855.22;;;29.32;46.88
19594;BME280;9944;48.240;16.478;2022-07-04T11:17:28;99853.13;;;29.48;46.26
19594;BME280;9944;48.240;16.478;2022-07-04T11:21:39;99858.56;;;29.48;45.98
19594;BME280;9944;48.240;16.478;2022-07-04T11:25:45;99860.38;;;29.47;45.72
19594;BME280;9944;48.240;16.478;2022-07-04T11:29:53;99860.69;;;29.56;45.90
19594;BME280;9944;48.240;16.478;2022-07-04T11:33:56;99852.63;;;29.80;46.10
19594;BME280;9944;48.240;16.478;2022-07-04T11:38:00;99845.94;;;30.08;46.00
19594;BME280;9944;48.240;16.478;2022-07-04T11:42:03;99843.44;;;30.29;45.30
19594;BME280;9944;48.240;16.478;2022-07-04T11:46:25;99843.78;;;30.49;44.69
19594;BME280;9944;48.240;16.478;2022-07-04T11:50:29;99850.47;;;30.67;45.07
19594;BME280;9944;48.240;16.478;2022-07-04T11:54:32;99857.03;;;30.76;44.77
19594;BME280;9944;48.240;16.478;2022-07-04T11:58:53;99844.84;;;30.82;44.95
19594;BME280;9944;48.240;16.478;2022-07-04T12:03:00;99851.50;;;30.89;44.76
19594;BME280;9944;48.240;16.478;2022-07-04T12:07:08;99838.94;;;30.99;44.08
19594;BME280;9944;48.240;16.478;2022-07-04T12:11:12;99840.16;;;30.95;43.75
19594;BME280;9944;48.240;16.478;2022-07-04T12:15:16;99828.03;;;30.88;44.09
19594;BME280;9944;48.240;16.478;2022-07-04T12:19:21;99824.09;;;30.92;43.67
19594;BME280;9944;48.240;16.478;2022-07-04T12:23:24;99813.72;;;31.08;43.65
19594;BME280;9944;48.240;16.478;2022-07-04T12:27:30;99814.19;;;31.25;43.19
19594;BME280;9944;48.240;16.478;2022-07-04T12:31:38;99812.94;;;31.40;42.97
19594;BME280;9944;48.240;16.478;2022-07-04T12:35:47;99805.00;;;31.48;42.58
19594;BME280;9944;48.240;16.478;2022-07-04T12:39:50;99809.59;;;31.48;42.29
19594;BME280;9944;48.240;16.478;2022-07-04T12:43:53;99809.47;;;31.61;41.39
19594;BME280;9944;48.240;16.478;2022-07-04T12:47:56;99808.19;;;31.76;41.20
19594;BME280;9944;48.240;16.478;2022-07-04T12:52:06;99818.50;;;31.94;40.48
19594;BME280;9944;48.240;16.478;2022-07-04T12:56:10;99821.94;;;32.07;40.24
19594;BME280;9944;48.240;16.478;2022-07-04T13:00:29;99823.81;;;32.27;39.94
19594;BME280;9944;48.240;16.478;2022-07-04T13:04:37;99820.03;;;32.40;39.46
19594;BME280;9944;48.240;16.478;2022-07-04T13:08:42;99810.47;;;32.45;39.23
19594;BME280;9944;48.240;16.478;2022-07-04T13:12:45;99809.75;;;32.43;39.49
19594;BME280;9944;48.240;16.478;2022-07-04T13:16:49;99809.41;;;32.37;38.15
19594;BME280;9944;48.240;16.478;2022-07-04T13:20:52;99810.50;;;32.34;38.33
19594;BME280;9944;48.240;16.478;2022-07-04T13:24:56;99799.50;;;32.36;38.58
19594;BME280;9944;48.240;16.478;2022-07-04T13:29:02;99790.59;;;32.34;38.61
19594;BME280;9944;48.240;16.478;2022-07-04T13:33:12;99788.06;;;32.42;38.68
19594;BME280;9944;48.240;16.478;2022-07-04T13:37:15;99786.34;;;32.41;38.59
19594;BME280;9944;48.240;16.478;2022-07-04T13:41:20;99795.84;;;32.46;37.83
19594;BME280;9944;48.240;16.478;2022-07-04T13:45:24;99789.06;;;32.41;37.20
19594;BME280;9944;48.240;16.478;2022-07-04T13:49:28;99773.16;;;32.46;38.52
19594;BME280;9944;48.240;16.478;2022-07-04T13:53:31;99779.81;;;32.53;38.61
19594;BME280;9944;48.240;16.478;2022-07-04T13:57:37;99769.84;;;32.63;38.31
19594;BME280;9944;48.240;16.478;2022-07-04T14:01:41;99759.41;;;32.69;38.62
19594;BME280;9944;48.240;16.478;2022-07-04T14:05:44;99766.59;;;32.70;38.79
19594;BME280;9944;48.240;16.478;2022-07-04T14:09:48;99757.25;;;32.62;38.27
19594;BME280;9944;48.240;16.478;2022-07-04T14:13:52;99758.59;;;32.57;39.33
19594;BME280;9944;48.240;16.478;2022-07-04T14:17:56;99750.59;;;32.55;39.44
19594;BME280;9944;48.240;16.478;2022-07-04T14:21:59;99751.78;;;32.62;39.60
19594;BME280;9944;48.240;16.478;2022-07-04T14:26:03;99730.31;;;32.69;38.06
19594;BME280;9944;48.240;16.478;2022-07-04T14:30:08;99727.97;;;32.64;38.70
19594;BME280;9944;48.240;16.478;2022-07-04T14:34:12;99736.03;;;32.66;38.78
19594;BME280;9944;48.240;16.478;2022-07-04T14:38:15;99732.88;;;32.71;38.94
19594;BME280;9944;48.240;16.478;2022-07-04T14:42:18;99737.34;;;32.72;38.74
19594;BME280;9944;48.240;16.478;2022-07-04T14:46:23;99739.78;;;32.75;38.58
19594;BME280;9944;48.240;16.478;2022-07-04T14:50:27;99729.16;;;32.72;38.88
19594;BME280;9944;48.240;16.478;2022-07-04T14:54:30;99730.16;;;32.71;39.04
19594;BME280;9944;48.240;16.478;2022-07-04T14:58:33;99735.09;;;32.56;38.98
19594;BME280;9944;48.240;16.478;2022-07-04T15:02:37;99736.03;;;32.45;39.17
19594;BME280;9944;48.240;16.478;2022-07-04T15:06:41;99726.41;;;32.41;38.52
19594;BME280;9944;48.240;16.478;2022-07-04T15:10:46;99721.50;;;32.35;38.94
19594;BME280;9944;48.240;16.478;2022-07-04T15:15:04;99730.94;;;32.31;39.58
19594;BME280;9944;48.240;16.478;2022-07-04T15:19:09;99727.16;;;32.22;39.21
19594;BME280;9944;48.240;16.478;2022-07-04T15:23:14;99722.38;;;32.14;38.63
19594;BME280;9944;48.240;16.478;2022-07-04T15:27:34;99732.09;;;32.07;39.06
19594;BME280;9944;48.240;16.478;2022-07-04T15:31:38;99734.31;;;32.02;38.78
19594;BME280;9944;48.240;16.478;2022-07-04T15:35:43;99726.66;;;31.96;38.64
19594;BME280;9944;48.240;16.478;2022-07-04T15:39:46;99723.47;;;31.90;39.33
19594;BME280;9944;48.240;16.478;2022-07-04T15:43:49;99727.97;;;31.80;39.23
19594;BME280;9944;48.240;16.478;2022-07-04T15:47:53;99725.06;;;31.72;38.93
19594;BME280;9944;48.240;16.478;2022-07-04T15:51:57;99731.03;;;31.66;38.52
19594;BME280;9944;48.240;16.478;2022-07-04T15:56:00;99731.09;;;31.55;38.77
19594;BME280;9944;48.240;16.478;2022-07-04T16:00:04;99730.81;;;31.46;38.92
19594;BME280;9944;48.240;16.478;2022-07-04T16:04:12;99724.91;;;31.41;39.43
19594;BME280;9944;48.240;16.478;2022-07-04T16:08:17;99720.97;;;31.34;39.61
19594;BME280;9944;48.240;16.478;2022-07-04T16:12:20;99711.75;;;31.25;40.51
19594;BME280;9944;48.240;16.478;2022-07-04T16:16:24;99719.91;;;31.14;40.96
19594;BME280;9944;48.240;16.478;2022-07-04T16:20:27;99725.50;;;31.01;41.57
19594;BME280;9944;48.240;16.478;2022-07-04T16:24:32;99727.97;;;30.93;42.28
19594;BME280;9944;48.240;16.478;2022-07-04T16:28:35;99724.28;;;30.71;42.69
19594;BME280;9944;48.240;16.478;2022-07-04T16:32:38;99716.88;;;30.51;43.15
19594;BME280;9944;48.240;16.478;2022-07-04T16:36:42;99701.56;;;30.38;43.79
19594;BME280;9944;48.240;16.478;2022-07-04T16:40:47;99695.94;;;30.29;44.10
19594;BME280;9944;48.240;16.478;2022-07-04T16:44:50;99691.16;;;30.21;44.51
19594;BME280;9944;48.240;16.478;2022-07-04T16:48:53;99680.50;;;30.07;44.70
19594;BME280;9944;48.240;16.478;2022-07-04T16:52:56;99674.22;;;29.95;45.05
19594;BME280;9944;48.240;16.478;2022-07-04T16:57:01;99673.81;;;29.88;45.63
19594;BME280;9944;48.240;16.478;2022-07-04T17:01:05;99662.69;;;29.80;45.85
19594;BME280;9944;48.240;16.478;2022-07-04T17:05:15;99670.41;;;29.73;45.89
19594;BME280;9944;48.240;16.478;2022-07-04T17:09:18;99687.03;;;29.68;46.01
19594;BME280;9944;48.240;16.478;2022-07-04T17:13:22;99691.69;;;29.55;46.19
19594;BME280;9944;48.240;16.478;2022-07-04T17:17:27;99696.19;;;29.43;46.40
19594;BME280;9944;48.240;16.478;2022-07-04T17:21:32;99696.78;;;29.36;46.49
19594;BME280;9944;48.240;16.478;2022-07-04T17:25:35;99693.56;;;29.31;46.71
19594;BME280;9944;48.240;16.478;2022-07-04T17:29:40;99686.84;;;29.23;46.70
19594;BME280;9944;48.240;16.478;2022-07-04T17:33:44;99687.22;;;29.19;47.23
19594;BME280;9944;48.240;16.478;2022-07-04T17:37:48;99688.50;;;29.13;47.16
19594;BME280;9944;48.240;16.478;2022-07-04T17:41:51;99683.31;;;29.10;47.37
19594;BME280;9944;48.240;16.478;2022-07-04T17:45:56;99680.38;;;29.13;47.40
19594;BME280;9944;48.240;16.478;2022-07-04T17:49:59;99682.31;;;29.11;47.14
19594;BME280;9944;48.240;16.478;2022-07-04T17:54:02;99684.28;;;29.09;47.61
19594;BME280;9944;48.240;16.478;2022-07-04T17:58:06;99687.22;;;29.06;47.66
19594;BME280;9944;48.240;16.478;2022-07-04T18:02:10;99695.81;;;29.00;47.36
19594;BME280;9944;48.240;16.478;2022-07-04T18:06:14;99706.44;;;28.90;47.36
19594;BME280;9944;48.240;16.478;2022-07-04T18:10:18;99712.34;;;28.84;48.02
19594;BME280;9944;48.240;16.478;2022-07-04T18:14:21;99715.03;;;28.84;47.91
19594;BME280;9944;48.240;16.478;2022-07-04T18:18:27;99724.25;;;28.81;47.95
19594;BME280;9944;48.240;16.478;2022-07-04T18:22:31;99722.00;;;28.75;47.97
19594;BME280;9944;48.240;16.478;2022-07-04T18:26:35;99734.91;;;28.71;48.04
19594;BME280;9944;48.240;16.478;2022-07-04T18:30:39;99732.41;;;28.68;48.18
19594;BME280;9944;48.240;16.478;2022-07-04T18:34:43;99743.34;;;28.67;48.34
19594;BME280;9944;48.240;16.478;2022-07-04T18:38:46;99749.09;;;28.62;48.24
19594;BME280;9944;48.240;16.478;2022-07-04T18:42:49;99762.19;;;28.55;48.43
19594;BME280;9944;48.240;16.478;2022-07-04T18:47:10;99752.75;;;28.48;48.71
19594;BME280;9944;48.240;16.478;2022-07-04T18:51:16;99764.22;;;28.39;49.43
19594;BME280;9944;48.240;16.478;2022-07-04T18:55:20;99779.19;;;28.32;50.09
19594;BME280;9944;48.240;16.478;2022-07-04T18:59:23;99777.31;;;28.20;50.45
19594;BME280;9944;48.240;16.478;2022-07-04T19:03:27;99787.06;;;28.09;50.95
19594;BME280;9944;48.240;16.478;2022-07-04T19:07:31;99800.44;;;27.98;51.72
19594;BME280;9944;48.240;16.478;2022-07-04T19:11:35;99801.22;;;27.86;52.03
19594;BME280;9944;48.240;16.478;2022-07-04T19:15:39;99807.47;;;27.73;51.99
19594;BME280;9944;48.240;16.478;2022-07-04T19:19:42;99810.81;;;27.64;52.79
19594;BME280;9944;48.240;16.478;2022-07-04T19:23:46;99813.91;;;27.58;53.51
19594;BME280;9944;48.240;16.478;2022-07-04T19:27:50;99819.91;;;27.49;54.13
19594;BME280;9944;48.240;16.478;2022-07-04T19:31:53;99824.19;;;27.38;54.61
19594;BME280;9944;48.240;16.478;2022-07-04T19:35:57;99831.91;;;27.30;54.64
19594;BME280;9944;48.240;16.478;2022-07-04T19:40:03;99838.84;;;27.20;55.01
19594;BME280;9944;48.240;16.478;2022-07-04T19:44:07;99838.69;;;27.09;55.64
19594;BME280;9944;48.240;16.478;2022-07-04T19:48:11;99850.25;;;26.96;55.58
19594;BME280;9944;48.240;16.478;2022-07-04T19:52:15;99843.69;;;26.86;56.04
19594;BME280;9944;48.240;16.478;2022-07-04T19:56:32;99840.41;;;26.81;57.05
19594;BME280;9944;48.240;16.478;2022-07-04T20:00:36;99839.06;;;26.74;57.49
19594;BME280;9944;48.240;16.478;2022-07-04T20:04:40;99838.91;;;26.61;57.54
19594;BME280;9944;48.240;16.478;2022-07-04T20:08:44;99847.41;;;26.55;58.36
19594;BME280;9944;48.240;16.478;2022-07-04T20:12:48;99841.50;;;26.48;58.45
19594;BME280;9944;48.240;16.478;2022-07-04T20:16:52;99835.53;;;26.43;58.95
19594;BME280;9944;48.240;16.478;2022-07-04T20:20:56;99830.56;;;26.35;59.81
19594;BME280;9944;48.240;16.478;2022-07-04T20:24:59;99832.78;;;26.28;59.94
19594;BME280;9944;48.240;16.478;2022-07-04T20:29:04;99832.38;;;26.20;59.75
19594;BME280;9944;48.240;16.478;2022-07-04T20:33:07;99824.66;;;26.14;60.55
19594;BME280;9944;48.240;16.478;2022-07-04T20:37:10;99837.53;;;26.09;59.97
19594;BME280;9944;48.240;16.478;2022-07-04T20:41:13;99832.53;;;26.03;60.56
19594;BME280;9944;48.240;16.478;2022-07-04T20:45:18;99836.34;;;25.99;61.41
19594;BME280;9944;48.240;16.478;2022-07-04T20:49:22;99840.25;;;25.93;61.75
19594;BME280;9944;48.240;16.478;2022-07-04T20:53:25;99835.13;;;25.88;62.16
19594;BME280;9944;48.240;16.478;2022-07-04T20:57:29;99834.53;;;25.83;62.53
19594;BME280;9944;48.240;16.478;2022-07-04T21:01:33;99857.75;;;25.70;62.85
19594;BME280;9944;48.240;16.478;2022-07-04T21:05:37;99860.56;;;25.52;62.40
19594;BME280;9944;48.240;16.478;2022-07-04T21:09:41;99870.97;;;25.43;63.07
19594;BME280;9944;48.240;16.478;2022-07-04T21:13:44;99877.91;;;25.31;62.94
19594;BME280;9944;48.240;16.478;2022-07-04T21:17:49;99883.28;;;25.31;62.96
19594;BME280;9944;48.240;16.478;2022-07-04T21:21:52;99887.25;;;25.24;62.96
19594;BME280;9944;48.240;16.478;2022-07-04T21:25:57;99894.56;;;25.22;62.90
19594;BME280;9944;48.240;16.478;2022-07-04T21:30:00;99895.41;;;25.22;63.46
19594;BME280;9944;48.240;16.478;2022-07-04T21:34:05;99901.69;;;25.23;63.97
19594;BME280;9944;48.240;16.478;2022-07-04T21:38:08;99899.78;;;25.25;63.88